Four Smile — IBPQ — position and weather

sailwx.info

Track history (hours):
 
Tides and Currents Weather Stations Pressure Air Temp Water Temp Dewpoint Dewpoint Depression Visibility Wind Speed Wind Dir Waves Ship Positions

Four Smile

Last reported at 2017-Oct-18 21:46 UTC. Time now 2017-Oct-20 05:24 UTC.
Position N 35°57' W 005°42'.

Length 274 m; draft 13.4 m.

Type: Ship. MMSI: 247271800.

Date/timePositionNaut miles runAvg speedWind from/ knotsBaromVisibWave heightAir tempDewpointWater temp
2017-Oct-18 21:46N 35°57' W 005°42'3 9.9
2017-Oct-18 21:25N 35°57' W 005°38'411.1
2017-Oct-18 21:01N 35°58' W 005°33'510.0
2017-Oct-18 20:30N 36°00' W 005°27'4 8.6
2017-Oct-18 20:00N 36°03' W 005°23'4 8.6
2017-Oct-18 19:30N 36°07' W 005°22'0 0.7
2017-Oct-18 18:57N 36°07' W 005°22'0 0.3
2017-Oct-18 18:30N 36°07' W 005°22'0 0.3
2017-Oct-18 17:51N 36°07' W 005°22'0 0.2
2017-Oct-18 17:30N 36°07' W 005°22'0 0.1
2017-Oct-18 16:51N 36°07' W 005°22'0 0.1
2017-Oct-18 16:27N 36°07' W 005°22'0 0.0
2017-Oct-18 15:51N 36°07' W 005°22'0 0.0
2017-Oct-18 15:21N 36°07' W 005°22'0 0.0
2017-Oct-18 14:51N 36°07' W 005°22'0 0.1
2017-Oct-18 13:57N 36°07' W 005°22'0 0.0
2017-Oct-18 13:18N 36°07' W 005°22'0 0.2
2017-Oct-18 12:54N 36°07' W 005°22'0 0.1
2017-Oct-18 12:24N 36°07' W 005°22'0 0.0
2017-Oct-18 11:45N 36°07' W 005°22'0 0.2
2017-Oct-18 11:27N 36°07' W 005°22'0 0.3
2017-Oct-18 11:00N 36°07' W 005°22'0 0.6
2017-Oct-18 10:30N 36°07' W 005°22'2 4.2
2017-Oct-18 10:00N 36°05' W 005°20'5 9.1
2017-Oct-18 09:30N 36°06' W 005°15'3 6.6
2017-Oct-18 09:00N 36°08' W 005°12'0 0.7
2017-Oct-18 08:26N 36°08' W 005°11'1 1.2
2017-Oct-18 07:59N 36°08' W 005°11'2 3.4
2017-Oct-18 07:30N 36°06' W 005°11'1 1.5
2017-Oct-18 07:00N 36°06' W 005°10'1 1.2
2017-Oct-18 06:30N 36°06' W 005°10'0 1.0
2017-Oct-18 06:00N 36°06' W 005°11'0 0.9
2017-Oct-18 05:30N 36°07' W 005°11'0 0.9
2017-Oct-18 05:00N 36°07' W 005°12'1 1.1
2017-Oct-18 04:30N 36°07' W 005°12'1 2.6
2017-Oct-18 04:00N 36°07' W 005°11'3 5.8
2017-Oct-18 03:30N 36°07' W 005°07'1 1.3
2017-Oct-18 03:00N 36°08' W 005°07'0 0.7
2017-Oct-18 02:30N 36°08' W 005°07'0 0.6
2017-Oct-18 02:00N 36°08' W 005°07'0 0.4
2017-Oct-18 01:30N 36°08' W 005°08'0 0.2
2017-Oct-18 00:23N 36°08' W 005°08'0 0.1
2017-Oct-17 23:50N 36°08' W 005°08'0 0.3
2017-Oct-17 23:30N 36°08' W 005°08'1 1.0
2017-Oct-17 22:37N 36°08' W 005°09'1 2.9
2017-Oct-17 22:26N 36°08' W 005°10'1 2.8
2017-Oct-17 22:00N 36°09' W 005°11'3 5.1
2017-Oct-17 21:30N 36°08' W 005°08'53912.7
2017-Oct-16 02:58N 37°41' E 005°56'29412.9
2017-Oct-15 04:08N 37°37' E 012°07'213.3
2017-Oct-15 03:59N 37°36' E 012°09'612.8
2017-Oct-15 03:30N 37°34' E 012°16'3813.3
2017-Oct-15 00:41N 37°18' E 012°59'213.7
2017-Oct-15 00:30N 37°17' E 013°02'713.7
2017-Oct-15 00:00N 37°14' E 013°10'713.3
2017-Oct-14 23:30N 37°11' E 013°18'1612.8
2017-Oct-14 22:17N 37°04' E 013°35'412.9
2017-Oct-14 22:00N 37°03' E 013°39'612.3
2017-Oct-14 21:30N 36°60' E 013°46'611.7
2017-Oct-14 21:00N 36°57' E 013°53'612.5
2017-Oct-14 20:30N 36°55' E 013°60'612.8
2017-Oct-14 20:00N 36°52' E 014°07'713.0
2017-Oct-14 19:30N 36°49' E 014°14'713.3
2017-Oct-14 19:00N 36°46' E 014°22'713.2
2017-Oct-14 18:30N 36°43' E 014°29'713.3
2017-Oct-14 17:58N 36°40' E 014°37'612.9
2017-Oct-14 17:29N 36°37' E 014°44'612.5
2017-Oct-14 16:59N 36°35' E 014°51'912.7
2017-Oct-14 16:15N 36°35' E 015°03'1012.7
2017-Oct-14 15:28N 36°34' E 015°15'612.9
2017-Oct-14 15:00N 36°34' E 015°23'41512.2
2017-Oct-13 04:55N 37°22' E 023°59'2513.1
2017-Oct-13 03:00N 37°43' E 024°16'913.6
2017-Oct-13 02:21N 37°49' E 024°25'613.2
2017-Oct-13 01:54N 37°52' E 024°31'14213.2
2017-Oct-12 15:11N 39°58' E 025°55'312.6
2017-Oct-12 14:56N 40°01' E 025°57'813.6
2017-Oct-12 14:23N 40°01' E 026°07'  
2017-Oct-09 19:21N 40°55' E 028°51'1 2.0
2017-Oct-09 18:59N 40°56' E 028°51'1 0.1
2017-Oct-09 07:34N 40°56' E 028°52'1 4.2
2017-Oct-09 07:14N 40°56' E 028°54'3 8.0
2017-Oct-09 06:52N 40°58' E 028°57'  
Track history (hours):
 
Tides and Currents Weather Stations Pressure Air Temp Water Temp Dewpoint Dewpoint Depression Visibility Wind Speed Wind Dir Waves Ship Positions

Four Smile

Last reported at 2017-Oct-18 21:46 UTC. Time now 2017-Oct-20 05:24 UTC.
Position N 35°57' W 005°42'.

Length 274 m; draft 13.4 m.

Type: Ship. MMSI: 247271800.

Date/timePositionNaut miles runAvg speedWind from/ knotsBaromVisibWave heightAir tempDewpointWater temp
2017-Oct-18 21:46N 35°57' W 005°42'3 9.9
2017-Oct-18 21:25N 35°57' W 005°38'411.1
2017-Oct-18 21:01N 35°58' W 005°33'510.0
2017-Oct-18 20:30N 36°00' W 005°27'4 8.6
2017-Oct-18 20:00N 36°03' W 005°23'4 8.6
2017-Oct-18 19:30N 36°07' W 005°22'0 0.7
2017-Oct-18 18:57N 36°07' W 005°22'0 0.3
2017-Oct-18 18:30N 36°07' W 005°22'0 0.3
2017-Oct-18 17:51N 36°07' W 005°22'0 0.2
2017-Oct-18 17:30N 36°07' W 005°22'0 0.1
2017-Oct-18 16:51N 36°07' W 005°22'0 0.1
2017-Oct-18 16:27N 36°07' W 005°22'0 0.0
2017-Oct-18 15:51N 36°07' W 005°22'0 0.0
2017-Oct-18 15:21N 36°07' W 005°22'0 0.0
2017-Oct-18 14:51N 36°07' W 005°22'0 0.1
2017-Oct-18 13:57N 36°07' W 005°22'0 0.0
2017-Oct-18 13:18N 36°07' W 005°22'0 0.2
2017-Oct-18 12:54N 36°07' W 005°22'0 0.1
2017-Oct-18 12:24N 36°07' W 005°22'0 0.0
2017-Oct-18 11:45N 36°07' W 005°22'0 0.2
2017-Oct-18 11:27N 36°07' W 005°22'0 0.3
2017-Oct-18 11:00N 36°07' W 005°22'0 0.6
2017-Oct-18 10:30N 36°07' W 005°22'2 4.2
2017-Oct-18 10:00N 36°05' W 005°20'5 9.1
2017-Oct-18 09:30N 36°06' W 005°15'3 6.6
2017-Oct-18 09:00N 36°08' W 005°12'0 0.7
2017-Oct-18 08:26N 36°08' W 005°11'1 1.2
2017-Oct-18 07:59N 36°08' W 005°11'2 3.4
2017-Oct-18 07:30N 36°06' W 005°11'1 1.5
2017-Oct-18 07:00N 36°06' W 005°10'1 1.2
2017-Oct-18 06:30N 36°06' W 005°10'0 1.0
2017-Oct-18 06:00N 36°06' W 005°11'0 0.9
2017-Oct-18 05:30N 36°07' W 005°11'0 0.9
2017-Oct-18 05:00N 36°07' W 005°12'1 1.1
2017-Oct-18 04:30N 36°07' W 005°12'1 2.6
2017-Oct-18 04:00N 36°07' W 005°11'3 5.8
2017-Oct-18 03:30N 36°07' W 005°07'1 1.3
2017-Oct-18 03:00N 36°08' W 005°07'0 0.7
2017-Oct-18 02:30N 36°08' W 005°07'0 0.6
2017-Oct-18 02:00N 36°08' W 005°07'0 0.4
2017-Oct-18 01:30N 36°08' W 005°08'0 0.2
2017-Oct-18 00:23N 36°08' W 005°08'0 0.1
2017-Oct-17 23:50N 36°08' W 005°08'0 0.3
2017-Oct-17 23:30N 36°08' W 005°08'1 1.0
2017-Oct-17 22:37N 36°08' W 005°09'1 2.9
2017-Oct-17 22:26N 36°08' W 005°10'1 2.8
2017-Oct-17 22:00N 36°09' W 005°11'3 5.1
2017-Oct-17 21:30N 36°08' W 005°08'53912.7
2017-Oct-16 02:58N 37°41' E 005°56'29412.9
2017-Oct-15 04:08N 37°37' E 012°07'213.3
2017-Oct-15 03:59N 37°36' E 012°09'612.8
2017-Oct-15 03:30N 37°34' E 012°16'3813.3
2017-Oct-15 00:41N 37°18' E 012°59'213.7
2017-Oct-15 00:30N 37°17' E 013°02'713.7
2017-Oct-15 00:00N 37°14' E 013°10'713.3
2017-Oct-14 23:30N 37°11' E 013°18'1612.8
2017-Oct-14 22:17N 37°04' E 013°35'412.9
2017-Oct-14 22:00N 37°03' E 013°39'612.3
2017-Oct-14 21:30N 36°60' E 013°46'611.7
2017-Oct-14 21:00N 36°57' E 013°53'612.5
2017-Oct-14 20:30N 36°55' E 013°60'612.8
2017-Oct-14 20:00N 36°52' E 014°07'713.0
2017-Oct-14 19:30N 36°49' E 014°14'713.3
2017-Oct-14 19:00N 36°46' E 014°22'713.2
2017-Oct-14 18:30N 36°43' E 014°29'713.3
2017-Oct-14 17:58N 36°40' E 014°37'612.9
2017-Oct-14 17:29N 36°37' E 014°44'612.5
2017-Oct-14 16:59N 36°35' E 014°51'912.7
2017-Oct-14 16:15N 36°35' E 015°03'1012.7
2017-Oct-14 15:28N 36°34' E 015°15'612.9
2017-Oct-14 15:00N 36°34' E 015°23'41512.2
2017-Oct-13 04:55N 37°22' E 023°59'2513.1
2017-Oct-13 03:00N 37°43' E 024°16'913.6
2017-Oct-13 02:21N 37°49' E 024°25'613.2
2017-Oct-13 01:54N 37°52' E 024°31'14213.2
2017-Oct-12 15:11N 39°58' E 025°55'312.6
2017-Oct-12 14:56N 40°01' E 025°57'813.6
2017-Oct-12 14:23N 40°01' E 026°07'  
2017-Oct-09 19:21N 40°55' E 028°51'1 2.0
2017-Oct-09 18:59N 40°56' E 028°51'1 0.1
2017-Oct-09 07:34N 40°56' E 028°52'1 4.2
2017-Oct-09 07:14N 40°56' E 028°54'3 8.0
2017-Oct-09 06:52N 40°58' E 028°57'  

Dump ship's entire track history